createdAt,value
2022-12-19T00:00:34.478Z,102425.88
2022-12-19T00:03:02.430Z,102416.31
2022-12-19T00:05:30.626Z,102423.22
2022-12-19T00:07:58.989Z,102404.88
2022-12-19T00:10:30.214Z,102396.78
2022-12-19T00:12:59.476Z,102396.88
2022-12-19T00:15:27.036Z,102396.03
2022-12-19T00:17:54.809Z,102395.19
2022-12-19T00:20:22.644Z,102411.75
2022-12-19T00:22:51.043Z,102413.47
2022-12-19T00:25:19.088Z,102400.22
2022-12-19T00:27:47.089Z,102401.94
2022-12-19T00:30:16.846Z,102401.22
2022-12-19T00:32:44.774Z,102383.75
2022-12-19T00:35:12.568Z,102392.22
2022-12-19T00:37:43.436Z,102379.97
2022-12-19T00:40:17.329Z,102373.66
2022-12-19T00:42:50.142Z,102369.19
2022-12-19T00:45:22.739Z,102366.59
2022-12-19T00:47:50.443Z,102365.69
2022-12-19T00:50:18.447Z,102374.47
2022-12-19T00:52:46.216Z,102376.28
2022-12-19T00:55:18.598Z,102368.31
2022-12-19T00:57:47.277Z,102360.19
2022-12-19T01:00:16.753Z,102361.09
2022-12-19T01:02:46.187Z,102354.81
2022-12-19T01:05:14.130Z,102353.19
2022-12-19T01:07:42.022Z,102341.66
2022-12-19T01:10:10.791Z,102338.13
2022-12-19T01:12:46.614Z,102317.06
2022-12-19T01:15:16.602Z,102306.53
2022-12-19T01:17:46.065Z,102301.19
2022-12-19T01:20:15.852Z,102302.72
2022-12-19T01:22:43.653Z,102292.50
2022-12-19T01:25:11.606Z,102301.09
2022-12-19T01:27:39.389Z,102301.78
2022-12-19T01:30:08.669Z,102290.38
2022-12-19T01:32:37.721Z,102282.53
2022-12-19T01:35:09.954Z,102274.63
2022-12-19T01:37:48.696Z,102269.44
2022-12-19T01:40:16.487Z,102249.22
2022-12-19T01:42:44.241Z,102248.38
2022-12-19T01:45:42.121Z,102263.44
2022-12-19T01:48:18.589Z,102265.06
2022-12-19T01:51:01.868Z,102264.31
2022-12-19T01:53:35.712Z,102263.53
2022-12-19T01:56:08.603Z,102246.06
2022-12-19T01:58:39.179Z,102250.31
2022-12-19T02:01:07.052Z,102238.81
2022-12-19T02:03:37.012Z,102230.09
2022-12-19T02:06:08.917Z,102216.84
2022-12-19T02:08:38.010Z,102217.91
2022-12-19T02:11:06.032Z,102222.19
2022-12-19T02:13:34.316Z,102225.84
2022-12-19T02:16:07.149Z,102217.94
2022-12-19T02:18:43.652Z,102224.03
2022-12-19T02:21:44.208Z,102216.28
2022-12-19T02:24:42.797Z,102213.75
2022-12-19T02:27:39.818Z,102205.84
2022-12-19T02:30:11.178Z,102198.00
2022-12-19T02:33:01.228Z,102204.16
2022-12-19T02:35:35.066Z,102202.47
2022-12-19T02:38:12.880Z,102187.63
2022-12-19T02:40:46.357Z,102187.63
2022-12-19T02:43:19.715Z,102191.94
2022-12-19T02:45:49.268Z,102199.22
2022-12-19T02:48:19.623Z,102194.53
2022-12-19T02:50:50.495Z,102200.91
2022-12-19T02:53:24.000Z,102193.75
2022-12-19T02:56:12.239Z,102191.22
2022-12-19T02:59:02.359Z,102191.00
2022-12-19T03:01:45.684Z,102183.22
2022-12-19T03:04:26.609Z,102183.13
2022-12-19T03:07:01.713Z,102182.19
2022-12-19T03:09:39.232Z,102167.25
2022-12-19T03:12:17.150Z,102157.41
2022-12-19T03:14:47.164Z,102177.63
2022-12-19T03:17:15.625Z,102167.94
2022-12-19T03:19:45.869Z,102162.66
2022-12-19T03:22:13.844Z,102169.59
2022-12-19T03:24:41.813Z,102172.28
2022-12-19T03:27:12.548Z,102173.91
2022-12-19T03:29:46.760Z,102164.31
2022-12-19T03:32:16.224Z,102169.53
2022-12-19T03:34:50.315Z,102155.44
2022-12-19T03:37:21.299Z,102152.84
2022-12-19T03:39:56.665Z,102150.88
2022-12-19T03:42:45.490Z,102165.00
2022-12-19T03:45:17.053Z,102163.16
2022-12-19T03:47:50.415Z,102162.31
2022-12-19T03:50:20.739Z,102160.66
2022-12-19T03:52:58.371Z,102161.13
2022-12-19T03:55:32.555Z,102155.16
2022-12-19T03:58:07.824Z,102156.84
2022-12-19T04:00:38.972Z,102157.78
2022-12-19T04:03:07.765Z,102159.41
2022-12-19T04:05:39.106Z,102160.94
2022-12-19T04:08:09.135Z,102157.50
2022-12-19T04:10:44.606Z,102147.81
2022-12-19T04:13:17.144Z,102148.81
2022-12-19T04:15:52.677Z,102147.97
2022-12-19T04:18:21.960Z,102147.72
2022-12-19T04:20:54.753Z,102140.66
2022-12-19T04:23:27.915Z,102139.72
2022-12-19T04:26:01.443Z,102145.03
2022-12-19T04:28:34.578Z,102147.50
2022-12-19T04:31:03.842Z,102153.66
2022-12-19T04:33:31.407Z,102152.75
2022-12-19T04:36:01.302Z,102157.47
2022-12-19T04:38:29.219Z,102160.84
2022-12-19T04:40:57.379Z,102154.84
2022-12-19T04:43:25.237Z,102153.00
2022-12-19T04:45:57.341Z,102154.94
2022-12-19T04:48:25.401Z,102153.88
2022-12-19T04:50:53.562Z,102151.97
2022-12-19T04:53:22.986Z,102143.91
2022-12-19T04:55:50.857Z,102134.50
2022-12-19T04:58:21.882Z,102127.38
2022-12-19T05:00:50.348Z,102125.94
2022-12-19T05:03:18.191Z,102128.56
2022-12-19T05:05:46.004Z,102125.88
2022-12-19T05:08:13.762Z,102128.66
2022-12-19T05:10:43.061Z,102117.22
2022-12-19T05:13:11.853Z,102117.44
2022-12-19T05:15:39.675Z,102109.66
2022-12-19T05:18:07.814Z,102119.50
2022-12-19T05:20:37.603Z,102114.34
2022-12-19T05:23:11.322Z,102124.97
2022-12-19T05:25:44.451Z,102127.03
2022-12-19T05:28:12.264Z,102121.41
2022-12-19T05:30:40.311Z,102113.38
2022-12-19T05:33:08.274Z,102108.09
2022-12-19T05:35:36.935Z,102114.25
2022-12-19T05:38:05.436Z,102119.47
2022-12-19T05:40:33.309Z,102107.69
2022-12-19T05:43:02.449Z,102115.44
2022-12-19T05:45:30.265Z,102096.91
2022-12-19T05:48:01.312Z,102091.63
2022-12-19T05:50:29.524Z,102087.97
2022-12-19T05:52:57.365Z,102096.13
2022-12-19T05:55:25.222Z,102087.75
2022-12-19T05:57:53.043Z,102084.81
2022-12-19T06:00:22.803Z,102094.63
2022-12-19T06:02:50.783Z,102084.03
2022-12-19T06:05:18.817Z,102073.38
2022-12-19T06:07:46.574Z,102077.66
2022-12-19T06:10:14.434Z,102079.31
2022-12-19T06:12:42.235Z,102063.56
2022-12-19T06:15:10.891Z,102051.03
2022-12-19T06:17:40.095Z,102043.69
2022-12-19T06:20:08.887Z,102052.69
2022-12-19T06:22:36.678Z,102043.75
2022-12-19T06:25:05.170Z,102046.47
2022-12-19T06:27:33.087Z,102037.63
2022-12-19T06:30:00.908Z,102036.66
2022-12-19T06:32:29.792Z,102029.22
2022-12-19T06:35:05.046Z,102024.13
2022-12-19T06:37:32.968Z,102024.13
2022-12-19T06:40:00.733Z,102029.31
2022-12-19T06:42:27.595Z,102022.00
2022-12-19T06:44:56.754Z,102030.78
2022-12-19T06:47:25.847Z,102033.25
2022-12-19T06:49:53.655Z,102041.09
2022-12-19T06:52:22.817Z,102049.66
2022-12-19T06:54:50.667Z,102045.22
2022-12-19T06:57:18.598Z,102054.06
2022-12-19T06:59:46.476Z,102058.28
2022-12-19T07:02:25.561Z,102052.53
2022-12-19T07:04:58.818Z,102039.72
2022-12-19T07:07:29.683Z,102030.63
2022-12-19T07:09:57.523Z,102032.25
2022-12-19T07:12:25.386Z,102023.53
2022-12-19T07:14:53.826Z,102038.09
2022-12-19T07:17:23.472Z,102031.66
2022-12-19T07:19:57.146Z,102025.59
2022-12-19T07:22:30.246Z,102030.00
2022-12-19T07:24:58.831Z,102032.56
2022-12-19T07:27:35.260Z,102035.91
2022-12-19T07:30:03.929Z,102033.31
2022-12-19T07:32:31.722Z,102032.78
2022-12-19T07:34:59.456Z,102041.69
2022-12-19T07:37:28.592Z,102030.38
2022-12-19T07:39:56.304Z,102044.19
2022-12-19T07:42:26.060Z,102023.66
2022-12-19T07:44:57.208Z,102035.16
2022-12-19T07:47:27.508Z,102037.84
2022-12-19T07:49:55.480Z,102032.44
2022-12-19T07:52:23.411Z,102018.03
2022-12-19T07:54:52.528Z,102021.53
2022-12-19T07:57:20.570Z,102024.97
2022-12-19T07:59:48.328Z,102017.75
2022-12-19T08:02:16.164Z,102014.63
2022-12-19T08:04:44.016Z,102013.00
2022-12-19T08:07:12.791Z,102006.09
2022-12-19T08:09:40.587Z,101999.19
2022-12-19T08:12:10.401Z,101992.53
2022-12-19T08:14:38.193Z,101994.53
2022-12-19T08:17:21.849Z,101995.88
2022-12-19T08:19:49.988Z,101991.44
2022-12-19T08:22:17.860Z,101985.03
2022-12-19T08:24:45.681Z,101991.69
2022-12-19T08:27:16.615Z,102000.88
2022-12-19T08:29:44.448Z,102006.50
2022-12-19T08:32:17.052Z,101998.63
2022-12-19T08:34:48.251Z,102004.78
2022-12-19T08:37:16.076Z,101992.66
2022-12-19T08:39:43.857Z,101995.63
2022-12-19T08:42:11.627Z,101984.50
2022-12-19T08:44:40.794Z,101985.81
2022-12-19T08:47:09.500Z,101988.53
2022-12-19T08:49:37.344Z,101979.66
2022-12-19T08:52:05.097Z,101965.53
2022-12-19T08:54:32.941Z,101960.72
2022-12-19T08:57:00.788Z,101951.25
2022-12-19T08:59:31.740Z,101948.66
2022-12-19T09:02:02.230Z,101940.13
2022-12-19T09:06:02.560Z,101933.00
2022-12-19T09:07:18.947Z,101933.34
2022-12-19T09:09:46.773Z,101935.28
2022-12-19T09:12:15.368Z,101934.75
2022-12-19T09:14:44.067Z,101940.06
2022-12-19T09:17:13.692Z,101935.69
2022-12-19T09:19:47.115Z,101927.47
2022-12-19T09:22:16.299Z,101911.53
2022-12-19T09:24:44.197Z,101921.97
2022-12-19T09:27:12.058Z,101927.03
2022-12-19T09:29:39.857Z,101916.78
2022-12-19T09:32:07.731Z,101905.28
2022-12-19T09:34:39.147Z,101906.50
2022-12-19T09:37:08.728Z,101900.06
2022-12-19T09:39:36.960Z,101898.78
2022-12-19T09:42:22.275Z,101893.38
2022-12-19T09:45:06.905Z,101882.25
2022-12-19T09:47:41.842Z,101873.00
2022-12-19T09:50:25.137Z,101867.00
2022-12-19T09:52:59.400Z,101868.63
2022-12-19T09:55:32.578Z,101861.47
2022-12-19T09:58:05.999Z,101856.66
2022-12-19T10:00:36.935Z,101861.94
2022-12-19T10:03:10.212Z,101853.00
2022-12-19T10:06:58.907Z,101842.16
2022-12-19T10:08:40.627Z,101837.13
2022-12-19T10:12:39.794Z,101840.25
2022-12-19T10:14:43.845Z,101845.38
2022-12-19T10:17:24.564Z,101835.94
2022-12-19T10:20:24.213Z,101827.44
2022-12-19T10:23:02.858Z,101831.50
2022-12-19T10:25:41.289Z,101821.91
2022-12-19T10:28:20.081Z,101812.16
2022-12-19T10:31:02.638Z,101808.94
2022-12-19T10:33:40.174Z,101819.41
2022-12-19T10:36:11.942Z,101816.34
2022-12-19T10:38:51.680Z,101809.19
2022-12-19T10:41:24.120Z,101794.66
2022-12-19T10:44:02.295Z,101795.69
2022-12-19T10:46:39.303Z,101784.41
2022-12-19T10:49:15.050Z,101778.06
2022-12-19T10:51:43.430Z,101775.22
2022-12-19T10:54:12.643Z,101774.41
2022-12-19T10:56:40.577Z,101773.03
2022-12-19T10:59:17.593Z,101762.81
2022-12-19T11:01:46.772Z,101758.19
2022-12-19T11:04:30.271Z,101754.44
2022-12-19T11:07:20.545Z,101750.69
2022-12-19T11:10:08.140Z,101745.88
2022-12-19T11:16:43.873Z,101737.31
2022-12-19T11:20:34.015Z,101730.09
2022-12-19T11:24:30.048Z,101733.75
2022-12-19T11:29:18.284Z,101728.91
2022-12-19T11:29:45.795Z,101735.38
2022-12-19T11:30:46.430Z,101726.81
2022-12-19T11:32:43.659Z,101726.03
2022-12-19T11:35:19.528Z,101719.72
2022-12-19T11:37:55.491Z,101718.69
2022-12-19T11:40:33.828Z,101713.94
2022-12-19T11:43:43.280Z,101716.84
2022-12-19T11:46:03.759Z,101716.50
2022-12-19T11:48:43.060Z,101715.69
2022-12-19T11:51:20.862Z,101699.69
2022-12-19T11:54:03.379Z,101692.91
2022-12-19T11:56:31.221Z,101701.28
2022-12-19T11:59:03.824Z,101686.41
2022-12-19T12:02:02.527Z,101698.38
2022-12-19T12:04:58.952Z,101684.75
2022-12-19T12:08:00.177Z,101678.25
2022-12-19T12:16:50.111Z,101674.44
2022-12-19T12:21:19.819Z,101674.59
2022-12-19T12:28:55.276Z,101667.44
2022-12-19T12:31:10.203Z,101665.63
2022-12-19T12:31:29.886Z,101662.88
2022-12-19T12:31:46.589Z,101662.63
2022-12-19T12:32:06.759Z,101666.59
2022-12-19T12:35:29.217Z,101654.59
2022-12-19T12:35:51.816Z,101656.28
2022-12-19T12:38:10.974Z,101661.44
2022-12-19T12:40:10.772Z,101651.00
2022-12-19T12:42:51.973Z,101642.94
2022-12-19T12:45:24.628Z,101645.88
2022-12-19T12:47:54.154Z,101644.00
2022-12-19T12:50:25.061Z,101644.00
2022-12-19T12:52:56.136Z,101641.16
2022-12-19T12:55:28.649Z,101635.78
2022-12-19T12:57:56.807Z,101631.34
2022-12-19T13:00:27.330Z,101629.44
2022-12-19T13:02:59.446Z,101621.41
2022-12-19T13:05:41.611Z,101610.97
2022-12-19T13:08:32.201Z,101612.41
2022-12-19T13:11:02.662Z,101610.03
2022-12-19T13:13:52.915Z,101609.75
2022-12-19T13:16:53.694Z,101610.72
2022-12-19T13:19:28.455Z,101605.31
2022-12-19T13:22:23.189Z,101606.00
2022-12-19T13:24:53.466Z,101595.91
2022-12-19T13:27:39.611Z,101599.00
2022-12-19T13:30:21.612Z,101602.41
2022-12-19T13:33:12.672Z,101597.69
2022-12-19T13:36:54.747Z,101600.50
2022-12-19T13:39:59.209Z,101602.84
2022-12-19T13:41:47.556Z,101596.59
2022-12-19T13:44:19.201Z,101600.00
2022-12-19T13:46:47.971Z,101593.50
2022-12-19T13:49:20.585Z,101586.47
2022-12-19T13:51:50.553Z,101581.16
2022-12-19T13:54:29.130Z,101581.84
2022-12-19T13:57:01.830Z,101585.38
2022-12-19T13:59:40.813Z,101583.47
2022-12-19T14:02:31.362Z,101578.50
2022-12-19T14:05:00.216Z,101587.75
2022-12-19T14:07:40.234Z,101577.75
2022-12-19T14:11:38.314Z,101583.13
2022-12-19T14:13:55.733Z,101570.72
2022-12-19T14:16:34.785Z,101587.84
2022-12-19T14:19:20.079Z,101582.63
2022-12-19T14:22:09.532Z,101581.50
2022-12-19T14:24:35.685Z,101577.53
2022-12-19T14:28:15.729Z,101573.97
2022-12-19T14:30:27.795Z,101572.22
2022-12-19T14:33:46.718Z,101568.66
2022-12-19T14:36:09.839Z,101575.31
2022-12-19T14:39:23.220Z,101562.13
2022-12-19T14:42:01.464Z,101570.19
2022-12-19T14:53:34.019Z,101558.00
2022-12-19T14:54:07.207Z,101561.66
2022-12-19T14:54:08.507Z,101570.59
2022-12-19T14:54:52.769Z,101554.75
2022-12-19T14:56:47.317Z,101558.91
2022-12-19T14:59:01.548Z,101557.63
2022-12-19T15:01:33.155Z,101559.25
2022-12-19T15:04:51.738Z,101556.78
2022-12-19T15:07:07.751Z,101549.22
2022-12-19T15:11:07.709Z,101544.91
2022-12-19T15:14:51.085Z,101550.03
2022-12-19T15:15:58.683Z,101542.41
2022-12-19T15:18:30.109Z,101536.91
2022-12-19T15:21:00.175Z,101538.69
2022-12-19T15:23:28.965Z,101545.72
2022-12-19T15:26:06.945Z,101537.66
2022-12-19T15:28:41.517Z,101544.31
2022-12-19T15:31:26.895Z,101542.25
2022-12-19T15:36:50.615Z,101551.06
2022-12-19T15:39:24.919Z,101538.47
2022-12-19T15:41:54.826Z,101537.31
2022-12-19T15:44:27.494Z,101535.41
2022-12-19T15:46:56.017Z,101539.66
2022-12-19T15:49:25.393Z,101542.31
2022-12-19T15:51:53.633Z,101538.06
2022-12-19T15:54:48.123Z,101537.50
2022-12-19T15:57:20.614Z,101533.78
2022-12-19T15:59:48.710Z,101531.34
2022-12-19T16:02:19.713Z,101528.28
2022-12-19T16:04:51.182Z,101532.09
2022-12-19T16:07:20.553Z,101533.91
2022-12-19T16:09:49.606Z,101525.28
2022-12-19T16:12:20.256Z,101527.16
2022-12-19T16:14:50.799Z,101525.56
2022-12-19T16:17:25.607Z,101522.13
2022-12-19T16:19:54.966Z,101518.31
2022-12-19T16:22:24.419Z,101520.97
2022-12-19T16:24:53.338Z,101513.56
2022-12-19T16:27:25.392Z,101509.22
2022-12-19T16:29:54.239Z,101525.44
2022-12-19T16:32:24.144Z,101517.56
2022-12-19T16:34:54.316Z,101509.22
2022-12-19T16:37:24.702Z,101515.47
2022-12-19T16:39:56.572Z,101519.56
2022-12-19T16:42:24.451Z,101511.84
2022-12-19T16:44:52.326Z,101512.50
2022-12-19T16:47:21.265Z,101518.56
2022-12-19T16:49:49.190Z,101512.69
2022-12-19T16:52:18.440Z,101507.56
2022-12-19T16:54:46.267Z,101506.59
2022-12-19T16:57:21.169Z,101501.06
2022-12-19T16:59:49.866Z,101500.25
2022-12-19T17:02:40.563Z,101503.63
2022-12-19T17:05:15.117Z,101501.84
2022-12-19T17:07:44.556Z,101496.78
2022-12-19T17:10:12.325Z,101501.59
2022-12-19T17:12:41.170Z,101490.25
2022-12-19T17:15:20.763Z,101502.84
2022-12-19T17:17:48.691Z,101499.03
2022-12-19T17:20:19.194Z,101489.91
2022-12-19T17:22:48.948Z,101486.78
2022-12-19T17:25:21.300Z,101492.38
2022-12-19T17:27:49.423Z,101488.53
2022-12-19T17:30:18.010Z,101490.44
2022-12-19T17:32:48.955Z,101495.97
2022-12-19T17:35:23.947Z,101493.00
2022-12-19T17:37:58.278Z,101488.91
2022-12-19T17:40:27.693Z,101492.91
2022-12-19T17:42:56.290Z,101493.03
2022-12-19T17:45:24.649Z,101495.47
2022-12-19T17:48:00.351Z,101494.72
2022-12-19T17:50:33.053Z,101493.66
2022-12-19T17:53:02.221Z,101498.25
2022-12-19T17:55:32.026Z,101491.94
2022-12-19T17:58:02.234Z,101493.88
2022-12-19T18:00:33.732Z,101489.84
2022-12-19T18:03:15.623Z,101483.78
2022-12-19T18:05:53.110Z,101495.69
2022-12-19T18:08:34.220Z,101485.06
2022-12-19T18:11:11.152Z,101484.25
2022-12-19T18:13:42.640Z,101490.00
2022-12-19T18:16:19.225Z,101493.31
2022-12-19T18:18:51.530Z,101490.22
2022-12-19T18:21:26.306Z,101493.19
2022-12-19T18:24:00.333Z,101491.84
2022-12-19T18:26:28.644Z,101493.75
2022-12-19T18:28:56.484Z,101485.66
2022-12-19T18:31:27.943Z,101490.13
2022-12-19T18:34:07.028Z,101488.75
2022-12-19T18:36:42.027Z,101487.06
2022-12-19T18:39:22.225Z,101487.59
2022-12-19T18:41:52.589Z,101486.09
2022-12-19T18:44:22.543Z,101480.00
2022-12-19T18:46:51.419Z,101488.13
2022-12-19T18:49:19.519Z,101484.94
2022-12-19T18:51:47.670Z,101483.56
2022-12-19T18:54:19.647Z,101482.59
2022-12-19T18:56:47.767Z,101483.84
2022-12-19T18:59:15.650Z,101474.94
2022-12-19T19:01:46.611Z,101478.34
2022-12-19T19:04:17.870Z,101470.16
2022-12-19T19:06:50.940Z,101476.44
2022-12-19T19:09:22.505Z,101462.81
2022-12-19T19:11:50.444Z,101461.06
2022-12-19T19:14:18.341Z,101462.16
2022-12-19T19:16:46.163Z,101449.25
2022-12-19T19:19:18.741Z,101451.72
2022-12-19T19:21:46.787Z,101452.69
2022-12-19T19:24:17.097Z,101451.41
2022-12-19T19:26:46.606Z,101435.72
2022-12-19T19:29:15.029Z,101442.78
2022-12-19T19:31:46.796Z,101442.13
2022-12-19T19:34:17.898Z,101433.63
2022-12-19T19:36:49.421Z,101433.91
2022-12-19T19:39:19.807Z,101433.50
2022-12-19T19:41:49.086Z,101446.81
2022-12-19T19:44:16.941Z,101449.81
2022-12-19T19:46:44.877Z,101443.63
2022-12-19T19:49:13.042Z,101450.88
2022-12-19T19:51:40.877Z,101441.81
2022-12-19T19:54:08.748Z,101432.31
2022-12-19T19:56:36.553Z,101430.31
2022-12-19T19:59:05.953Z,101427.63
2022-12-19T20:01:33.856Z,101431.69
2022-12-19T20:04:01.911Z,101430.63
2022-12-19T20:06:29.815Z,101433.06
2022-12-19T20:08:57.744Z,101430.53
2022-12-19T20:11:25.560Z,101422.63
2022-12-19T20:13:53.793Z,101425.50
2022-12-19T20:16:23.149Z,101423.59
2022-12-19T20:18:52.745Z,101430.94
2022-12-19T20:21:21.121Z,101430.94
2022-12-19T20:23:50.764Z,101431.25
2022-12-19T20:26:18.751Z,101421.34
2022-12-19T20:28:50.071Z,101416.69
2022-12-19T20:31:18.893Z,101404.84
2022-12-19T20:33:49.173Z,101415.69
2022-12-19T20:36:17.724Z,101408.47
2022-12-19T20:38:46.155Z,101407.41
2022-12-19T20:41:14.542Z,101405.56
2022-12-19T20:43:42.435Z,101408.88
2022-12-19T20:46:12.928Z,101408.41
2022-12-19T20:48:41.448Z,101416.19
2022-12-19T20:51:11.063Z,101423.88
2022-12-19T20:53:39.509Z,101438.06
2022-12-19T20:56:09.176Z,101438.38
2022-12-19T20:58:38.667Z,101438.06
2022-12-19T21:01:09.590Z,101432.94
2022-12-19T21:03:38.445Z,101432.41
2022-12-19T21:06:07.590Z,101435.50
2022-12-19T21:08:37.513Z,101436.25
2022-12-19T21:11:07.492Z,101434.84
2022-12-19T21:13:36.216Z,101441.22
2022-12-19T21:16:08.478Z,101437.94
2022-12-19T21:18:37.051Z,101451.59
2022-12-19T21:21:05.807Z,101458.72
2022-12-19T21:23:34.293Z,101452.31
2022-12-19T21:26:04.920Z,101450.72
2022-12-19T21:28:33.634Z,101450.66
2022-12-19T21:31:03.372Z,101438.41
2022-12-19T21:33:31.529Z,101441.38
2022-12-19T21:36:05.530Z,101435.03
2022-12-19T21:38:33.432Z,101425.50
2022-12-19T21:41:05.895Z,101421.66
2022-12-19T21:43:33.829Z,101413.13
2022-12-19T21:46:06.668Z,101420.25
2022-12-19T21:48:37.124Z,101418.50
2022-12-19T21:51:05.355Z,101432.41
2022-12-19T21:53:33.488Z,101417.16
2022-12-19T21:56:07.571Z,101411.78
2022-12-19T21:58:35.865Z,101408.38
2022-12-19T22:01:08.671Z,101402.66
2022-12-19T22:03:36.931Z,101407.97
2022-12-19T22:06:05.084Z,101408.41
2022-12-19T22:08:33.169Z,101417.97
2022-12-19T22:11:01.973Z,101408.63
2022-12-19T22:13:31.372Z,101411.72
2022-12-19T22:16:01.203Z,101419.28
2022-12-19T22:18:29.318Z,101425.03
2022-12-19T22:20:59.750Z,101424.38
2022-12-19T22:23:27.844Z,101421.19
2022-12-19T22:26:04.065Z,101399.47
2022-12-19T22:28:34.850Z,101419.50
2022-12-19T22:31:03.484Z,101420.56
2022-12-19T22:33:31.712Z,101419.09
2022-12-19T22:36:05.857Z,101408.88
2022-12-19T22:38:33.680Z,101408.00
2022-12-19T22:41:04.257Z,101398.22
2022-12-19T22:43:33.685Z,101393.66
2022-12-19T22:46:01.471Z,101396.09
2022-12-19T22:48:29.357Z,101393.13
2022-12-19T22:50:58.516Z,101394.72
2022-12-19T22:53:26.354Z,101397.78
2022-12-19T22:55:54.148Z,101398.34
2022-12-19T22:58:21.957Z,101387.78
2022-12-19T23:00:51.153Z,101387.03
2022-12-19T23:03:19.134Z,101382.25
2022-12-19T23:05:51.830Z,101379.06
2022-12-19T23:08:20.065Z,101372.66
2022-12-19T23:10:51.582Z,101378.09
2022-12-19T23:13:19.631Z,101390.16
2022-12-19T23:15:47.589Z,101380.78
2022-12-19T23:18:16.784Z,101373.84
2022-12-19T23:20:45.160Z,101386.00
2022-12-19T23:23:13.181Z,101390.13
2022-12-19T23:25:42.339Z,101385.25
2022-12-19T23:28:10.702Z,101379.69
2022-12-19T23:30:38.592Z,101383.09
2022-12-19T23:33:06.351Z,101378.31
2022-12-19T23:35:35.551Z,101363.81
2022-12-19T23:38:04.010Z,101373.31
2022-12-19T23:40:31.975Z,101369.03
2022-12-19T23:42:59.951Z,101364.22
2022-12-19T23:45:28.026Z,101369.66
2022-12-19T23:47:55.902Z,101367.75
2022-12-19T23:50:23.823Z,101355.31
2022-12-19T23:52:52.986Z,101361.50
2022-12-19T23:55:20.835Z,101364.34
2022-12-19T23:57:48.618Z,101361.38
